Time;durP1;ratioP1;P1;durP2;ratioP2;P2;SDS_P1;SDS_P2;PMS_P1;PMS_P2;Temp;Humidity;BMP_temperature;BMP_pressure;BME280_temperature;BME280_humidity;BME280_pressure;Samples;Min_cycle;Max_cycle;Signal;HPM_P1;HPM_P2
2022/11/15 00:00:14;;;;;;;15.05;9.60;;;;;;;10.73;100.00;99833.94;5003535;28;20044;-66
2022/11/15 00:02:39;;;;;;;15.63;10.05;;;;;;;10.77;100.00;99824.06;5010997;28;20037;-66
2022/11/15 00:05:05;;;;;;;16.13;9.38;;;;;;;10.81;100.00;99817.72;4991652;28;20034;-66
2022/11/15 00:07:30;;;;;;;14.98;9.70;;;;;;;10.83;100.00;99824.69;4991440;28;20030;-66
2022/11/15 00:09:55;;;;;;;14.80;9.77;;;;;;;10.83;100.00;99808.75;4991297;28;20050;-67
2022/11/15 00:12:21;;;;;;;16.13;9.40;;;;;;;10.91;100.00;99805.78;4992568;28;20018;-66
2022/11/15 00:14:46;;;;;;;15.68;9.18;;;;;;;10.94;100.00;99808.34;4991492;28;20041;-66
2022/11/15 00:17:12;;;;;;;16.42;8.63;;;;;;;10.97;100.00;99818.88;4991110;28;20096;-66
2022/11/15 00:19:37;;;;;;;15.02;9.48;;;;;;;10.98;100.00;99816.16;4991336;28;20037;-66
2022/11/15 00:22:02;;;;;;;15.27;8.43;;;;;;;10.97;100.00;99816.22;4991006;28;20042;-66
2022/11/15 00:24:28;;;;;;;14.77;8.95;;;;;;;10.83;100.00;99783.91;4991460;28;20026;-66
2022/11/15 00:26:53;;;;;;;15.63;8.27;;;;;;;10.91;100.00;99804.00;4991285;28;20059;-66
2022/11/15 00:29:19;;;;;;;14.85;9.18;;;;;;;10.95;100.00;99802.09;5006467;28;20021;-66
2022/11/15 00:31:44;;;;;;;14.27;8.73;;;;;;;10.94;100.00;99800.38;5010820;28;20361;-66
2022/11/15 00:34:10;;;;;;;12.75;9.02;;;;;;;10.88;100.00;99785.50;5010961;28;20022;-66
2022/11/15 00:36:36;;;;;;;11.40;8.15;;;;;;;10.99;100.00;99798.41;5010801;28;20514;-66
2022/11/15 00:39:04;;;;;;;14.65;8.80;;;;;;;11.00;100.00;99794.81;5010810;28;20113;-66
2022/11/15 00:41:29;;;;;;;13.27;7.93;;;;;;;11.02;100.00;99792.97;5010726;28;20040;-66
2022/11/15 00:43:55;;;;;;;14.93;8.55;;;;;;;10.93;100.00;99767.56;5010877;28;20029;-66
2022/11/15 00:46:20;;;;;;;14.52;8.00;;;;;;;11.05;100.00;99784.84;4994273;28;20026;-66
2022/11/15 00:48:46;;;;;;;12.40;7.90;;;;;;;11.05;100.00;99787.53;4995080;28;20018;-66
2022/11/15 00:51:11;;;;;;;10.73;6.55;;;;;;;11.03;100.00;99774.28;4995194;28;20046;-66
2022/11/15 00:53:36;;;;;;;8.23;5.93;;;;;;;11.00;100.00;99778.84;4996439;28;20030;-66
2022/11/15 00:56:02;;;;;;;11.25;5.70;;;;;;;11.02;100.00;99777.84;4993761;28;20026;-67
2022/11/15 00:58:27;;;;;;;10.82;5.88;;;;;;;11.05;100.00;99776.88;4993576;28;20023;-67
2022/11/15 01:00:53;;;;;;;12.50;6.30;;;;;;;11.07;100.00;99783.00;4993594;28;20109;-67
2022/11/15 01:03:18;;;;;;;8.55;5.38;;;;;;;11.13;100.00;99785.44;4993010;28;20022;-67
2022/11/15 01:05:44;;;;;;;10.18;5.10;;;;;;;11.20;100.00;99784.28;4993622;28;20049;-67
2022/11/15 01:08:13;;;;;;;7.70;4.75;;;;;;;11.19;100.00;99758.56;4993675;28;20053;-67
2022/11/15 01:10:38;;;;;;;10.45;5.43;;;;;;;11.34;100.00;99769.50;4994406;28;20043;-67
2022/11/15 01:13:03;;;;;;;9.02;5.38;;;;;;;11.39;100.00;99769.28;4993073;28;20042;-67
2022/11/15 01:15:29;;;;;;;10.45;5.85;;;;;;;11.43;100.00;99769.09;4994200;28;20030;-67
2022/11/15 01:17:54;;;;;;;8.45;5.18;;;;;;;11.47;100.00;99769.84;4994316;28;20025;-66
2022/11/15 01:20:20;;;;;;;8.15;5.35;;;;;;;11.50;100.00;99770.59;4994331;28;20756;-67
2022/11/15 01:22:45;;;;;;;9.27;5.32;;;;;;;11.46;100.00;99757.47;4994420;28;20381;-67
2022/11/15 01:25:11;;;;;;;8.98;5.15;;;;;;;11.56;100.00;99756.19;4994243;28;20026;-67
2022/11/15 01:27:36;;;;;;;9.23;5.07;;;;;;;11.51;100.00;99734.19;4994203;28;20541;-67
2022/11/15 01:30:02;;;;;;;9.25;5.57;;;;;;;11.59;100.00;99740.94;4994079;28;20529;-67
2022/11/15 01:32:27;;;;;;;9.55;5.50;;;;;;;11.63;100.00;99752.34;4994171;28;20077;-67
2022/11/15 01:34:53;;;;;;;8.32;6.00;;;;;;;11.63;100.00;99749.69;4994446;28;20577;-67
2022/11/15 01:37:18;;;;;;;8.00;5.03;;;;;;;11.61;100.00;99735.56;4993904;28;20026;-67
2022/11/15 01:39:44;;;;;;;7.13;3.83;;;;;;;11.66;100.00;99738.94;4993228;28;20157;-68
2022/11/15 01:42:13;;;;;;;7.47;4.72;;;;;;;11.68;100.00;99737.03;5007998;28;20026;-67
2022/11/15 01:44:48;;;;;;;10.70;4.47;;;;;;;11.70;100.00;99736.06;4992967;28;20061;-67
2022/11/15 01:47:23;;;;;;;7.30;4.80;;;;;;;11.71;100.00;99729.78;4993134;28;20034;-67
2022/11/15 01:49:54;;;;;;;8.40;4.68;;;;;;;11.76;100.00;99726.97;4992921;28;20037;-67
2022/11/15 01:52:23;;;;;;;6.75;4.60;;;;;;;11.87;100.00;99722.03;4992988;28;20498;-67
2022/11/15 01:54:54;;;;;;;9.95;5.00;;;;;;;11.93;100.00;99721.75;4993670;28;20030;-67
2022/11/15 01:57:19;;;;;;;7.97;4.40;;;;;;;11.99;100.00;99716.19;5008184;28;20080;-67
2022/11/15 01:59:45;;;;;;;8.02;5.10;;;;;;;12.03;100.00;99716.91;4995752;28;20034;-67
2022/11/15 02:02:11;;;;;;;8.10;4.47;;;;;;;11.98;100.00;99709.09;4993618;28;20057;-67
2022/11/15 02:04:43;;;;;;;8.85;4.82;;;;;;;12.08;100.00;99709.56;4993367;28;20030;-67
2022/11/15 02:07:10;;;;;;;10.00;5.30;;;;;;;12.08;100.00;99702.44;4993559;28;20034;-67
2022/11/15 02:09:37;;;;;;;6.43;4.18;;;;;;;12.06;100.00;99701.63;4993034;28;20040;-67
2022/11/15 02:12:03;;;;;;;8.27;5.13;;;;;;;12.05;100.00;99707.03;4993216;28;20054;-67
2022/11/15 02:14:30;;;;;;;7.28;4.65;;;;;;;12.05;100.00;99693.72;4993091;28;20032;-67
2022/11/15 02:17:01;;;;;;;9.90;4.40;;;;;;;12.07;100.00;99687.41;4995855;28;20034;-67
2022/11/15 02:19:33;;;;;;;9.60;5.03;;;;;;;12.10;100.00;99689.94;4993119;28;20031;-67
2022/11/15 02:22:24;;;;;;;9.63;4.65;;;;;;;12.05;100.00;99680.38;4993107;28;20026;-67
2022/11/15 02:25:08;;;;;;;9.80;5.07;;;;;;;12.11;100.00;99683.66;4991495;28;20017;-67
2022/11/15 02:27:52;;;;;;;10.98;4.68;;;;;;;12.09;100.00;99682.88;5009750;28;20124;-67
2022/11/15 02:30:20;;;;;;;;;;;;;;;12.12;100.00;99681.84;5013042;28;20022;-67
2022/11/15 02:32:54;;;;;;;9.90;4.88;;;;;;;12.14;100.00;99694.16;5012477;28;19933;-67
2022/11/15 02:35:45;;;;;;;9.32;4.50;;;;;;;12.12;100.00;99685.41;5003234;28;20887;-67
2022/11/15 02:38:16;;;;;;;8.57;5.00;;;;;;;12.09;100.00;99685.53;4993005;28;20130;-67
2022/11/15 02:40:49;;;;;;;8.43;4.90;;;;;;;12.12;100.00;99689.84;4992748;28;20026;-67
2022/11/15 02:43:58;;;;;;;8.93;4.95;;;;;;;12.11;100.00;99688.13;4992715;28;20045;-67
2022/11/15 02:49:33;;;;;;;10.63;6.00;;;;;;;12.10;100.00;99665.94;4992492;28;20107;-67
2022/11/15 02:51:58;;;;;;;6.82;4.65;;;;;;;12.07;100.00;99666.06;4995172;28;20030;-67
2022/11/15 02:54:28;;;;;;;13.48;7.40;;;;;;;12.11;100.00;99661.47;4990856;28;20080;-67
2022/11/15 02:56:56;;;;;;;10.23;6.03;;;;;;;12.10;100.00;99671.25;4992144;28;20069;-67
2022/11/15 02:59:49;;;;;;;10.05;5.53;;;;;;;12.06;100.00;99669.66;4989437;28;20516;-67
2022/11/15 03:02:27;;;;;;;10.73;5.97;;;;;;;12.05;100.00;99673.25;4988226;28;20401;-67
2022/11/15 03:05:00;;;;;;;11.15;6.75;;;;;;;12.03;100.00;99663.59;5000498;28;20113;-67
2022/11/15 03:07:42;;;;;;;9.82;6.00;;;;;;;12.01;100.00;99660.16;4996443;28;20548;-67
2022/11/15 03:10:35;;;;;;;10.18;6.10;;;;;;;11.95;100.00;99650.59;4992099;28;20065;-67
2022/11/15 03:13:33;;;;;;;8.85;5.45;;;;;;;11.98;100.00;99650.47;4992401;28;20422;-67
2022/11/15 03:16:08;;;;;;;7.55;4.80;;;;;;;11.98;100.00;99647.81;4975019;28;20034;-67
2022/11/15 03:18:38;;;;;;;8.40;4.43;;;;;;;11.89;100.00;99629.56;4992018;28;20029;-67
2022/11/15 03:21:07;;;;;;;8.13;4.97;;;;;;;12.00;100.00;99647.72;4992289;28;20065;-66
2022/11/15 03:23:35;;;;;;;9.25;5.13;;;;;;;12.01;100.00;99646.81;4992098;28;20038;-67
2022/11/15 03:26:01;;;;;;;8.10;4.55;;;;;;;12.01;100.00;99653.00;4992094;28;20032;-68
2022/11/15 03:28:36;;;;;;;10.05;4.90;;;;;;;12.02;100.00;99651.22;4991927;28;20022;-67
2022/11/15 03:31:46;;;;;;;9.13;4.75;;;;;;;12.01;100.00;99661.00;4992191;28;20038;-67
2022/11/15 03:33:53;;;;;;;8.77;5.15;;;;;;;12.02;100.00;99653.88;4991863;28;20036;-67
2022/11/15 03:36:21;;;;;;;6.85;4.80;;;;;;;12.01;100.00;99655.66;4991735;28;20037;-67
2022/11/15 03:38:47;;;;;;;8.30;4.15;;;;;;;12.02;100.00;99660.06;4991633;28;20741;-67
2022/11/15 03:41:51;;;;;;;7.63;4.85;;;;;;;12.04;100.00;99660.88;4991861;28;20053;-67
2022/11/15 03:44:35;;;;;;;;;;;;;;;12.05;100.00;99662.59;4990851;28;20070;-67
2022/11/15 03:47:08;;;;;;;10.15;4.10;;;;;;;11.97;100.00;99651.41;4991858;28;19910;-67
2022/11/15 03:49:37;;;;;;;8.57;4.15;;;;;;;12.04;100.00;99658.22;4991874;28;20030;-67
2022/11/15 03:52:04;;;;;;;8.73;4.47;;;;;;;12.03;100.00;99658.25;4993282;28;20405;-68
2022/11/15 03:54:30;;;;;;;8.38;4.45;;;;;;;12.01;100.00;99642.34;4991579;28;20470;-67
2022/11/15 03:56:56;;;;;;;11.35;4.82;;;;;;;12.00;100.00;99640.63;4991191;28;20075;-67
2022/11/15 03:59:22;;;;;;;7.85;4.15;;;;;;;11.86;100.00;99619.06;4991515;28;20026;-67
2022/11/15 04:01:47;;;;;;;6.53;4.10;;;;;;;11.96;100.00;99636.34;4991009;28;20142;-67
2022/11/15 04:04:13;;;;;;;7.65;4.68;;;;;;;12.06;100.00;99648.31;5005214;28;20144;-67
2022/11/15 04:06:38;;;;;;;8.27;5.03;;;;;;;12.06;100.00;99642.16;4990271;28;20489;-67
2022/11/15 04:09:04;;;;;;;9.27;4.60;;;;;;;12.02;100.00;99638.75;4990429;28;20502;-67
2022/11/15 04:11:29;;;;;;;7.53;4.57;;;;;;;12.05;100.00;99646.59;4990420;28;20149;-67
2022/11/15 04:13:55;;;;;;;8.32;4.68;;;;;;;12.06;100.00;99645.66;4990172;28;20054;-68
2022/11/15 04:16:20;;;;;;;6.65;4.00;;;;;;;12.07;100.00;99643.88;4990501;28;20398;-68
2022/11/15 04:24:11;;;;;;;7.75;4.93;;;;;;;12.08;100.00;99638.47;4991102;28;20114;-67
2022/11/15 04:24:15;;;;;;;8.93;5.50;;;;;;;12.08;100.00;99630.47;4995415;28;20145;-67
2022/11/15 04:26:41;;;;;;;11.07;5.45;;;;;;;12.07;100.00;99633.22;4997756;28;20113;-67
2022/11/15 04:31:50;;;;;;;10.82;5.43;;;;;;;12.07;100.00;99634.09;5011459;28;20044;-67
2022/11/15 04:34:16;;;;;;;16.02;8.90;;;;;;;12.05;100.00;99630.63;5014686;28;20061;-67
2022/11/15 04:39:25;;;;;;;21.35;7.15;;;;;;;12.09;100.00;99645.56;5005052;28;20085;-67
2022/11/15 04:41:51;;;;;;;14.70;7.32;;;;;;;12.12;100.00;99645.41;4995283;28;20466;-67
2022/11/15 04:44:16;;;;;;;10.93;6.32;;;;;;;12.13;100.00;99649.78;4994950;28;20121;-67
2022/11/15 04:46:42;;;;;;;12.18;6.97;;;;;;;12.14;100.00;99643.50;4995150;28;20030;-67
2022/11/15 04:49:07;;;;;;;12.40;6.70;;;;;;;12.15;100.00;99636.41;5009764;28;20026;-67
2022/11/15 04:51:33;;;;;;;12.30;7.63;;;;;;;12.16;100.00;99630.16;4994672;28;20085;-67
2022/11/15 04:53:59;;;;;;;11.00;6.60;;;;;;;12.15;100.00;99628.41;4994803;28;20787;-68
2022/11/15 04:56:24;;;;;;;14.43;7.53;;;;;;;12.13;100.00;99623.13;4994937;28;20038;-67
2022/11/15 04:58:49;;;;;;;10.00;5.70;;;;;;;12.15;100.00;99631.94;4994902;28;20041;-68
2022/11/15 05:01:15;;;;;;;20.48;6.63;;;;;;;12.13;100.00;99628.47;4994730;28;20032;-67
2022/11/15 05:06:25;;;;;;;17.33;6.50;;;;;;;12.08;100.00;99630.47;4994345;28;20036;-67
2022/11/15 05:08:51;;;;;;;11.63;5.95;;;;;;;12.06;100.00;99637.66;4994174;28;20526;-67
2022/11/15 05:11:16;;;;;;;11.63;6.00;;;;;;;12.06;100.00;99635.00;4994425;28;20050;-67
2022/11/15 05:13:42;;;;;;;10.85;6.15;;;;;;;12.07;100.00;99634.09;4993530;28;20028;-68
2022/11/15 05:16:07;;;;;;;10.85;6.32;;;;;;;12.07;100.00;99633.22;4993868;28;20022;-68
2022/11/15 05:18:32;;;;;;;11.38;5.95;;;;;;;11.99;100.00;99614.03;4993637;28;20025;-67
2022/11/15 05:21:05;;;;;;;9.65;6.05;;;;;;;12.03;100.00;99621.81;4994134;28;20029;-67
2022/11/15 05:23:31;;;;;;;14.18;6.75;;;;;;;12.02;100.00;99622.75;4994323;28;20022;-67
2022/11/15 05:26:03;;;;;;;9.50;5.93;;;;;;;11.98;100.00;99613.16;4994297;28;20037;-67
2022/11/15 05:28:29;;;;;;;10.18;6.57;;;;;;;11.99;100.00;99614.91;4994327;28;20089;-67
2022/11/15 05:31:11;;;;;;;10.45;5.88;;;;;;;11.90;100.00;99609.97;4993272;28;20030;-67
2022/11/15 05:33:38;;;;;;;9.00;5.93;;;;;;;11.98;100.00;99623.81;4994108;28;20026;-67
2022/11/15 05:36:14;;;;;;;11.45;5.93;;;;;;;11.98;100.00;99618.47;4994077;28;20029;-67
2022/11/15 05:38:39;;;;;;;13.40;7.03;;;;;;;12.00;100.00;99629.94;4994015;28;20411;-67
2022/11/15 05:41:05;;;;;;;11.60;6.63;;;;;;;11.99;100.00;99614.91;4993924;28;20065;-68
2022/11/15 05:43:35;;;;;;;9.77;6.22;;;;;;;11.93;100.00;99605.38;4992537;28;20058;-68
2022/11/15 05:46:03;;;;;;;13.75;6.63;;;;;;;11.97;100.00;99611.44;4993978;28;20030;-67
2022/11/15 05:48:28;;;;;;;14.50;6.10;;;;;;;12.00;100.00;99610.41;4993974;28;20429;-67
2022/11/15 05:50:54;;;;;;;10.90;6.60;;;;;;;11.97;100.00;99621.22;4993142;28;20022;-67
2022/11/15 05:53:22;;;;;;;10.32;6.60;;;;;;;11.96;100.00;99620.34;4993724;28;20513;-67
2022/11/15 05:55:48;;;;;;;12.63;6.78;;;;;;;11.93;100.00;99609.81;4993510;28;20036;-67
2022/11/15 05:58:14;;;;;;;13.38;6.13;;;;;;;11.88;100.00;99602.03;4993589;28;20030;-67
2022/11/15 06:00:40;;;;;;;17.30;6.45;;;;;;;11.90;100.00;99604.63;4995908;28;20084;-67
2022/11/15 06:03:06;;;;;;;10.40;5.40;;;;;;;11.97;100.00;99616.75;4993506;28;20023;-67
2022/11/15 06:05:31;;;;;;;8.82;5.53;;;;;;;11.97;100.00;99608.78;4993571;28;20092;-67
2022/11/15 06:07:58;;;;;;;9.88;5.53;;;;;;;11.93;100.00;99600.03;4993653;28;20042;-67
2022/11/15 06:10:24;;;;;;;8.52;5.30;;;;;;;12.03;100.00;99613.81;4992982;28;20134;-67
2022/11/15 06:13:00;;;;;;;8.88;5.32;;;;;;;12.04;100.00;99617.34;4993514;28;20147;-67
2022/11/15 06:15:26;;;;;;;7.95;4.90;;;;;;;12.06;100.00;99616.34;4992042;28;20035;-67
2022/11/15 06:17:51;;;;;;;7.63;4.65;;;;;;;12.08;100.00;99608.28;4992019;28;20023;-67
2022/11/15 06:20:17;;;;;;;10.02;4.72;;;;;;;12.05;100.00;99587.97;4993158;28;20038;-67
2022/11/15 06:22:43;;;;;;;8.90;4.70;;;;;;;12.11;100.00;99598.34;4993158;28;20030;-67
2022/11/15 06:25:08;;;;;;;8.77;4.55;;;;;;;12.13;100.00;99593.81;4993284;28;20733;-67
2022/11/15 06:27:34;;;;;;;9.20;5.28;;;;;;;12.13;100.00;99584.94;4993316;28;20419;-67
2022/11/15 06:29:59;;;;;;;9.80;5.32;;;;;;;12.11;100.00;99584.16;4988526;28;20490;-67
2022/11/15 06:32:25;;;;;;;7.93;5.07;;;;;;;12.14;100.00;99587.53;4992933;28;20030;-68
2022/11/15 06:34:50;;;;;;;9.80;5.38;;;;;;;12.15;100.00;99581.28;4993308;28;20429;-67
2022/11/15 06:37:16;;;;;;;7.18;4.47;;;;;;;12.14;100.00;99587.53;4992970;28;20027;-68
2022/11/15 06:39:41;;;;;;;9.10;5.45;;;;;;;12.14;100.00;99582.19;4992775;28;20496;-67
2022/11/15 06:42:08;;;;;;;11.38;5.75;;;;;;;12.12;100.00;99588.53;4992928;28;20073;-67
2022/11/15 06:44:34;;;;;;;9.60;5.75;;;;;;;12.12;100.00;99594.75;4992782;28;20438;-68
2022/11/15 06:46:59;;;;;;;16.30;6.05;;;;;;;12.03;100.00;99573.84;4990339;28;20053;-68
2022/11/15 06:49:25;;;;;;;11.32;5.60;;;;;;;12.13;100.00;99601.81;4990367;28;20037;-68
2022/11/15 06:51:50;;;;;;;8.52;5.35;;;;;;;12.18;100.00;99589.13;4991108;28;20026;-67
2022/11/15 06:54:15;;;;;;;9.88;5.25;;;;;;;12.20;100.00;99592.59;4992567;28;20018;-68
2022/11/15 06:56:41;;;;;;;10.32;4.53;;;;;;;12.26;100.00;99589.63;4992434;28;20026;-67
2022/11/15 06:59:06;;;;;;;8.60;4.32;;;;;;;12.31;100.00;99600.09;4990966;28;20069;-67
2022/11/15 07:01:32;;;;;;;10.68;4.13;;;;;;;12.37;100.00;99598.00;4992567;28;20157;-67
2022/11/15 07:03:57;;;;;;;5.97;3.60;;;;;;;12.39;100.00;99604.13;4992603;28;20029;-68
2022/11/15 07:06:22;;;;;;;7.00;3.90;;;;;;;12.43;100.00;99600.41;4992281;28;20026;-67
2022/11/15 07:08:48;;;;;;;7.57;3.80;;;;;;;12.46;100.00;99600.25;4991560;28;20427;-68
2022/11/15 07:11:14;;;;;;;7.53;3.42;;;;;;;12.52;100.00;99591.94;4994550;28;20061;-67
2022/11/15 07:13:39;;;;;;;6.75;3.33;;;;;;;12.60;100.00;99597.78;4992420;28;20038;-67
2022/11/15 07:16:07;;;;;;;7.40;3.65;;;;;;;12.65;100.00;99602.94;4992110;28;20093;-67
2022/11/15 07:18:40;;;;;;;7.38;3.70;;;;;;;12.70;100.00;99611.59;4992645;28;20034;-68
2022/11/15 07:21:08;;;;;;;6.68;3.30;;;;;;;12.72;100.00;99599.88;4991485;28;20050;-68
2022/11/15 07:23:37;;;;;;;8.40;3.10;;;;;;;12.73;100.00;99603.44;4991981;28;20038;-68
2022/11/15 07:26:03;;;;;;;6.47;4.15;;;;;;;12.73;100.00;99598.09;4991743;28;20438;-68
2022/11/15 07:28:29;;;;;;;6.70;2.83;;;;;;;12.75;100.00;99597.06;4990431;28;20062;-68
2022/11/15 07:30:54;;;;;;;7.07;4.18;;;;;;;12.82;100.00;99594.97;4991792;28;20018;-68
2022/11/15 07:33:20;;;;;;;5.57;3.30;;;;;;;12.86;100.00;99602.78;4992031;28;20049;-67
2022/11/15 07:35:49;;;;;;;4.97;3.10;;;;;;;12.84;100.00;99585.97;4987030;28;20046;-68
2022/11/15 07:38:14;;;;;;;6.57;3.80;;;;;;;12.96;100.00;99600.50;4986174;28;20038;-68
2022/11/15 07:40:40;;;;;;;7.03;3.38;;;;;;;12.92;100.00;99581.09;4991306;28;20031;-68
2022/11/15 07:43:07;;;;;;;6.75;3.70;;;;;;;13.04;100.00;99601.91;4990329;28;20067;-68
2022/11/15 07:45:34;;;;;;;7.20;4.13;;;;;;;13.11;100.00;99595.31;4991139;28;20030;-68
2022/11/15 07:48:00;;;;;;;5.10;3.33;;;;;;;13.11;100.00;99595.31;4990533;28;20041;-68
2022/11/15 07:50:26;;;;;;;8.10;3.88;;;;;;;13.18;100.00;99593.19;4989137;28;20033;-68
2022/11/15 07:52:59;;;;;;;7.43;3.88;;;;;;;13.23;100.00;99590.31;5001587;28;20102;-68
2022/11/15 07:55:27;;;;;;;8.45;3.72;;;;;;;13.18;100.00;99580.72;5006084;28;20485;-68
2022/11/15 07:57:52;;;;;;;5.85;3.55;;;;;;;13.27;100.00;99595.41;4990118;28;20034;-68
2022/11/15 08:00:19;;;;;;;7.97;3.95;;;;;;;13.27;100.00;99594.53;4989137;28;20465;-68
2022/11/15 08:02:45;;;;;;;9.20;4.00;;;;;;;13.29;100.00;99598.00;4991248;28;20038;-68
2022/11/15 08:05:10;;;;;;;6.55;4.20;;;;;;;13.18;100.00;99572.69;4991272;28;20101;-68
2022/11/15 08:07:37;;;;;;;7.40;3.88;;;;;;;13.20;100.00;99581.50;4993874;28;20018;-68
2022/11/15 08:10:05;;;;;;;7.30;3.85;;;;;;;13.29;100.00;99592.66;4989055;28;20076;-68
2022/11/15 08:12:31;;;;;;;7.68;3.78;;;;;;;13.30;100.00;99583.69;4990197;28;20058;-68
2022/11/15 08:14:56;;;;;;;9.30;4.60;;;;;;;13.34;100.00;99580.81;4991463;28;20108;-68
2022/11/15 08:17:23;;;;;;;6.45;4.40;;;;;;;13.34;100.00;99583.50;4989295;28;20038;-68
2022/11/15 08:19:49;;;;;;;9.57;5.25;;;;;;;13.37;100.00;99579.78;4989862;28;20564;-68
2022/11/15 08:22:14;;;;;;;6.53;4.45;;;;;;;13.39;100.00;99585.91;4990851;28;20062;-68
2022/11/15 08:24:39;;;;;;;7.80;4.68;;;;;;;13.39;100.00;99589.47;4993508;28;20120;-68
2022/11/15 08:27:14;;;;;;;7.63;4.57;;;;;;;13.43;100.00;99584.81;4991386;28;20382;-67
2022/11/15 08:29:41;;;;;;;7.03;4.13;;;;;;;13.45;100.00;99574.91;4995390;28;20026;-67
2022/11/15 08:32:07;;;;;;;8.55;5.20;;;;;;;13.46;100.00;99579.34;4990929;28;20033;-67
2022/11/15 08:34:32;;;;;;;12.10;6.53;;;;;;;13.47;100.00;99573.03;4991187;28;20367;-67
2022/11/15 08:36:58;;;;;;;8.50;5.03;;;;;;;13.47;100.00;99575.69;4989991;28;20034;-68
2022/11/15 08:39:23;;;;;;;11.23;5.95;;;;;;;13.46;100.00;99579.34;4990959;28;20034;-67
2022/11/15 08:41:49;;;;;;;11.88;6.07;;;;;;;13.46;100.00;99580.16;4988405;28;20113;-68
2022/11/15 08:44:14;;;;;;;12.70;5.63;;;;;;;13.47;100.00;99586.38;5004613;28;20036;-67
2022/11/15 08:46:39;;;;;;;11.18;6.43;;;;;;;13.49;100.00;99579.16;4990467;28;20022;-68
2022/11/15 08:49:05;;;;;;;11.68;7.80;;;;;;;13.52;100.00;99579.00;4990598;28;20113;-67
2022/11/15 08:51:30;;;;;;;12.05;7.03;;;;;;;13.55;100.00;99578.84;4989304;28;20711;-67
2022/11/15 08:53:56;;;;;;;12.98;7.65;;;;;;;13.59;100.00;99580.44;4990260;28;20037;-67
2022/11/15 08:56:21;;;;;;;12.77;6.80;;;;;;;13.59;100.00;99583.09;4990162;28;20037;-67
2022/11/15 08:58:47;;;;;;;10.55;6.05;;;;;;;13.63;100.00;99576.63;4989935;28;20030;-67
2022/11/15 09:01:18;;;;;;;12.45;6.07;;;;;;;13.70;100.00;99580.72;4989563;28;20026;-67
2022/11/15 09:03:43;;;;;;;9.15;5.05;;;;;;;13.74;100.00;99574.28;4986865;28;20094;-68
2022/11/15 09:06:09;;;;;;;9.60;5.20;;;;;;;13.77;100.00;99574.13;4989605;28;20121;-67
2022/11/15 09:08:34;;;;;;;9.32;5.50;;;;;;;13.80;100.00;99574.84;4992560;28;20034;-67
2022/11/15 09:11:04;;;;;;;7.07;4.50;;;;;;;13.84;100.00;99560.34;4996561;28;20046;-68
2022/11/15 09:13:29;;;;;;;7.05;4.88;;;;;;;13.89;100.00;99563.63;4977128;28;20037;-67
2022/11/15 09:15:59;;;;;;;7.65;4.40;;;;;;;13.87;100.00;99553.97;4994146;28;20026;-68
2022/11/15 09:18:25;;;;;;;8.77;4.47;;;;;;;13.96;100.00;99564.16;4991071;28;20030;-67
2022/11/15 09:20:50;;;;;;;7.20;4.65;;;;;;;13.97;100.00;99560.56;4991680;28;20501;-67
2022/11/15 09:23:16;;;;;;;7.10;3.60;;;;;;;14.00;100.00;99549.72;4994229;28;20153;-67
2022/11/15 09:25:41;;;;;;;6.28;3.63;;;;;;;14.07;100.00;99556.44;4986790;28;20034;-67
2022/11/15 09:28:08;;;;;;;5.82;3.88;;;;;;;14.08;100.00;99558.19;4992175;28;20030;-67
2022/11/15 09:30:33;;;;;;;9.50;4.78;;;;;;;14.10;100.00;99562.47;4992181;28;20026;-67
2022/11/15 09:32:59;;;;;;;8.18;4.85;;;;;;;14.10;100.00;99558.97;4988781;28;20030;-68
2022/11/15 09:35:24;;;;;;;6.97;4.03;;;;;;;14.20;100.00;99569.06;4992817;28;20026;-67
2022/11/15 09:37:49;;;;;;;7.22;4.10;;;;;;;14.20;100.00;99573.56;4990972;28;20035;-67
2022/11/15 09:40:17;;;;;;;7.60;3.78;;;;;;;14.15;100.00;99568.44;4990818;28;20030;-67
2022/11/15 09:42:57;;;;;;;5.97;3.53;;;;;;;14.18;100.00;99570.09;4993601;28;20022;-67
2022/11/15 09:45:34;;;;;;;5.30;3.55;;;;;;;14.17;100.00;99579.06;4993746;28;20037;-67
2022/11/15 09:48:17;;;;;;;7.85;3.80;;;;;;;14.12;100.00;99576.63;4993641;28;20756;-67
2022/11/15 09:50:48;;;;;;;;;;;;;;;14.11;100.00;99576.72;4994172;28;20032;-67
2022/11/15 09:53:35;;;;;;;6.10;3.15;;;;;;;14.12;100.00;99581.13;4989132;28;19914;-67
2022/11/15 09:56:13;;;;;;;5.50;3.42;;;;;;;14.09;100.00;99581.28;4974658;28;20442;-67
2022/11/15 09:58:43;;;;;;;7.72;3.90;;;;;;;14.06;100.00;99571.63;4978937;28;20513;-68
2022/11/15 10:01:18;;;;;;;6.68;3.63;;;;;;;14.10;100.00;99572.34;4993670;28;20030;-67
2022/11/15 10:03:45;;;;;;;8.63;6.20;;;;;;;14.12;100.00;99581.13;4984170;28;20545;-68
2022/11/15 10:06:27;;;;;;;8.82;5.55;;;;;;;14.13;100.00;99578.38;4990537;28;20457;-67
2022/11/15 10:09:13;;;;;;;6.55;4.13;;;;;;;14.18;100.00;99575.47;4975550;28;20042;-67
2022/11/15 10:11:40;;;;;;;4.85;3.90;;;;;;;14.20;100.00;99571.72;4989235;28;20056;-68
2022/11/15 10:14:16;;;;;;;6.25;3.38;;;;;;;14.23;100.00;99562.69;4992101;28;20058;-67
2022/11/15 10:17:02;;;;;;;5.47;3.72;;;;;;;14.30;100.00;99569.44;4992176;28;20522;-67
2022/11/15 10:19:58;;;;;;;8.25;3.90;;;;;;;14.35;100.00;99562.03;4991871;28;20027;-67
2022/11/15 10:22:47;;;;;;;4.65;3.03;;;;;;;14.41;100.00;99559.03;4991151;28;20041;-68
2022/11/15 10:25:32;;;;;;;5.13;3.20;;;;;;;14.40;100.00;99570.69;4992794;28;20022;-68
2022/11/15 10:28:03;;;;;;;5.78;3.55;;;;;;;14.42;100.00;99558.09;4988845;28;20085;-67
2022/11/15 10:30:41;;;;;;;9.05;3.95;;;;;;;14.46;100.00;99543.59;4992987;28;20478;-68
2022/11/15 10:33:29;;;;;;;5.32;3.42;;;;;;;14.55;100.00;99527.00;4992219;28;20374;-68
2022/11/15 10:36:13;;;;;;;8.18;5.45;;;;;;;14.65;100.00;99533.56;4987973;28;20026;-67
2022/11/15 10:38:50;;;;;;;9.65;5.57;;;;;;;14.73;100.00;99520.59;4986779;28;20112;-67
2022/11/15 10:41:26;;;;;;;7.25;4.80;;;;;;;14.83;100.00;99503.06;4984017;28;20038;-67
2022/11/15 10:44:06;;;;;;;10.32;5.43;;;;;;;15.06;100.00;99499.91;4988719;28;20030;-67
2022/11/15 10:46:32;;;;;;;7.35;4.30;;;;;;;15.41;100.00;99498.72;4985615;28;20359;-67
2022/11/15 10:49:24;;;;;;;6.28;4.28;;;;;;;15.73;100.00;99494.06;4987899;28;20022;-67
2022/11/15 10:52:01;;;;;;;5.43;3.50;;;;;;;15.86;100.00;99483.44;4985849;28;20121;-67
2022/11/15 10:54:51;;;;;;;5.82;3.60;;;;;;;16.01;100.00;99477.13;4975325;28;20037;-67
2022/11/15 10:57:26;;;;;;;7.75;3.65;;;;;;;16.00;98.57;99468.19;4989663;28;20431;-68
2022/11/15 10:59:59;;;;;;;5.57;3.35;;;;;;;16.14;99.45;99465.50;4985847;28;20152;-68
2022/11/15 11:02:32;;;;;;;4.45;2.45;;;;;;;16.13;94.47;99457.56;4991067;28;20041;-68
2022/11/15 11:04:58;;;;;;;6.07;3.08;;;;;;;16.12;94.18;99439.72;4988754;28;20026;-67
2022/11/15 11:07:30;;;;;;;5.85;2.80;;;;;;;16.12;94.74;99437.03;4986311;28;20121;-68
2022/11/15 11:10:01;;;;;;;3.58;2.25;;;;;;;16.06;94.58;99440.13;4989786;28;20022;-67
2022/11/15 11:12:31;;;;;;;4.57;2.42;;;;;;;16.04;94.04;99434.88;4985831;28;20065;-67
2022/11/15 11:14:58;;;;;;;3.95;2.45;;;;;;;16.05;93.27;99431.22;4986289;28;20034;-67
2022/11/15 11:17:37;;;;;;;4.03;2.25;;;;;;;16.13;92.83;99423.53;4991186;28;20042;-67
2022/11/15 11:20:38;;;;;;;4.65;2.13;;;;;;;16.17;93.68;99429.56;4987009;28;20289;-67
2022/11/15 11:23:42;;;;;;;5.15;2.53;;;;;;;16.25;93.54;99427.22;4966508;28;20039;-67
2022/11/15 11:26:32;;;;;;;8.82;3.50;;;;;;;16.25;92.64;99429.91;4963918;28;20137;-67
2022/11/15 11:29:34;;;;;;;9.32;4.38;;;;;;;16.28;93.84;99427.03;4988597;28;20494;-68
2022/11/15 11:32:18;;;;;;;6.60;3.53;;;;;;;16.24;93.00;99420.16;4988750;28;20022;-67
2022/11/15 11:35:13;;;;;;;7.07;3.47;;;;;;;16.16;92.41;99417.94;4990477;28;20030;-68
2022/11/15 11:37:53;;;;;;;5.47;3.30;;;;;;;16.10;92.10;99412.13;4988751;28;20053;-68
2022/11/15 11:40:28;;;;;;;7.03;3.13;;;;;;;16.10;93.47;99412.13;4990275;28;20018;-68
2022/11/15 11:42:59;;;;;;;12.55;4.03;;;;;;;16.05;92.73;99409.75;4987605;28;20022;-68
2022/11/15 11:45:34;;;;;;;11.57;3.58;;;;;;;15.99;92.31;99387.81;4989692;28;20049;-68
2022/11/15 11:48:13;;;;;;;14.35;3.70;;;;;;;16.09;93.65;99397.00;4988740;28;20374;-68
2022/11/15 11:50:40;;;;;;;6.95;3.50;;;;;;;16.26;94.40;99397.63;4987213;28;20045;-68